createdAt,value
2023-05-13T00:01:44.437Z,9.96
2023-05-13T00:04:10.766Z,10.24
2023-05-13T00:06:37.228Z,10.15
2023-05-13T00:09:03.572Z,10.20
2023-05-13T00:11:29.836Z,9.76
2023-05-13T00:13:56.067Z,9.72
2023-05-13T00:16:22.396Z,9.81
2023-05-13T00:18:48.648Z,9.57
2023-05-13T00:21:14.929Z,9.81
2023-05-13T00:23:41.556Z,10.00
2023-05-13T00:26:07.812Z,10.23
2023-05-13T00:28:34.091Z,10.39
2023-05-13T00:31:00.350Z,10.51
2023-05-13T00:33:26.679Z,10.39
2023-05-13T00:35:52.953Z,10.35
2023-05-13T00:38:19.195Z,10.15
2023-05-13T00:40:45.409Z,10.23
2023-05-13T00:43:11.653Z,10.19
2023-05-13T00:45:37.996Z,10.41
2023-05-13T00:48:04.375Z,10.38
2023-05-13T00:50:30.657Z,10.20
2023-05-13T00:52:56.865Z,10.06
2023-05-13T00:55:23.142Z,9.84
2023-05-13T00:57:49.417Z,9.88
2023-05-13T01:00:15.661Z,9.61
2023-05-13T01:02:42.079Z,9.06
2023-05-13T01:05:08.392Z,9.14
2023-05-13T01:07:34.648Z,8.96
2023-05-13T01:10:00.893Z,9.40
2023-05-13T01:12:27.115Z,9.12
2023-05-13T01:14:53.356Z,9.54
2023-05-13T01:17:19.581Z,9.97
2023-05-13T01:19:45.834Z,9.49
2023-05-13T01:22:12.081Z,9.26
2023-05-13T01:24:38.348Z,9.46
2023-05-13T01:27:04.643Z,9.24
2023-05-13T01:29:30.877Z,9.30
2023-05-13T01:31:57.123Z,9.55
2023-05-13T01:34:23.378Z,9.78
2023-05-13T01:36:49.618Z,9.39
2023-05-13T01:39:15.855Z,9.44
2023-05-13T01:41:42.078Z,9.53
2023-05-13T01:44:08.339Z,9.80
2023-05-13T01:46:34.647Z,10.23
2023-05-13T01:49:00.895Z,10.24
2023-05-13T01:51:27.203Z,10.24
2023-05-13T01:53:53.474Z,10.10
2023-05-13T01:56:19.757Z,9.95
2023-05-13T01:58:45.989Z,9.94
2023-05-13T02:01:12.215Z,9.76
2023-05-13T02:03:38.557Z,9.48
2023-05-13T02:06:04.932Z,9.21
2023-05-13T02:08:31.223Z,9.52
2023-05-13T02:10:57.465Z,9.58
2023-05-13T02:13:23.700Z,9.94
2023-05-13T02:15:49.937Z,10.12
2023-05-13T02:18:16.217Z,10.18
2023-05-13T02:20:42.506Z,10.48
2023-05-13T02:23:08.753Z,10.26
2023-05-13T02:25:35.010Z,10.23
2023-05-13T02:28:01.255Z,10.13
2023-05-13T02:30:27.510Z,10.44
2023-05-13T02:32:53.830Z,10.20
2023-05-13T02:35:20.145Z,9.67
2023-05-13T02:37:46.403Z,9.83
2023-05-13T02:40:12.630Z,10.12
2023-05-13T02:42:38.871Z,10.48
2023-05-13T02:45:05.110Z,10.55
2023-05-13T02:47:31.390Z,10.56
2023-05-13T02:49:57.688Z,10.45
2023-05-13T02:52:23.930Z,10.29
2023-05-13T02:54:50.206Z,10.09
2023-05-13T02:57:16.500Z,10.11
2023-05-13T02:59:42.769Z,10.08
2023-05-13T03:02:09.054Z,10.04
2023-05-13T03:04:35.323Z,9.98
2023-05-13T03:07:01.560Z,9.75
2023-05-13T03:09:27.792Z,9.99
2023-05-13T03:11:54.018Z,9.98
2023-05-13T03:14:20.267Z,10.06
2023-05-13T03:16:46.552Z,10.07
2023-05-13T03:19:12.816Z,9.73
2023-05-13T03:21:39.062Z,9.60
2023-05-13T03:24:05.282Z,9.12
2023-05-13T03:26:31.518Z,8.89
2023-05-13T03:28:57.797Z,8.85
2023-05-13T03:31:24.130Z,8.67
2023-05-13T03:33:50.403Z,8.40
2023-05-13T03:36:16.630Z,8.98
2023-05-13T03:38:42.847Z,9.26
2023-05-13T03:41:09.098Z,9.44
2023-05-13T03:43:35.378Z,9.38
2023-05-13T03:46:01.630Z,9.52
2023-05-13T03:48:27.882Z,9.66
2023-05-13T03:50:54.110Z,9.62
2023-05-13T03:53:20.355Z,9.80
2023-05-13T03:55:46.602Z,10.04
2023-05-13T03:58:12.860Z,10.21
2023-05-13T04:00:39.156Z,10.28
2023-05-13T04:03:05.427Z,10.09
2023-05-13T04:05:31.708Z,10.30
2023-05-13T04:07:57.934Z,10.47
2023-05-13T04:10:24.274Z,10.60
2023-05-13T04:12:50.634Z,10.51
2023-05-13T04:15:16.877Z,10.71
2023-05-13T04:17:43.159Z,10.70
2023-05-13T04:20:09.467Z,10.67
2023-05-13T04:22:35.731Z,10.85
2023-05-13T04:25:01.970Z,10.61
2023-05-13T04:27:28.218Z,10.23
2023-05-13T04:29:54.453Z,10.51
2023-05-13T04:32:20.710Z,10.66
2023-05-13T04:34:46.963Z,10.99
2023-05-13T04:37:13.200Z,11.21
2023-05-13T04:39:39.441Z,11.05
2023-05-13T04:42:05.669Z,11.24
2023-05-13T04:44:31.909Z,10.78
2023-05-13T04:46:58.160Z,11.19
2023-05-13T04:49:24.428Z,11.43
2023-05-13T04:51:51.131Z,11.30
2023-05-13T04:54:17.707Z,11.11
2023-05-13T04:56:43.965Z,11.17
2023-05-13T04:59:10.275Z,11.21
2023-05-13T05:01:36.593Z,11.33
2023-05-13T05:04:02.884Z,11.38
2023-05-13T05:06:29.223Z,11.00
2023-05-13T05:08:55.465Z,11.06
2023-05-13T05:11:21.762Z,11.42
2023-05-13T05:13:48.051Z,11.45
2023-05-13T05:16:14.290Z,11.18
2023-05-13T05:18:40.661Z,10.94
2023-05-13T05:21:06.954Z,10.86
2023-05-13T05:23:33.199Z,11.00
2023-05-13T05:26:08.385Z,11.20
2023-05-13T05:28:38.142Z,11.53
2023-05-13T05:31:04.451Z,11.48
2023-05-13T05:33:30.675Z,11.53
2023-05-13T05:35:56.961Z,11.31
2023-05-13T05:38:23.179Z,11.41
2023-05-13T05:40:49.400Z,11.27
2023-05-13T05:43:15.640Z,11.44
2023-05-13T05:45:41.897Z,11.14
2023-05-13T05:48:08.232Z,11.28
2023-05-13T05:50:34.524Z,11.10
2023-05-13T05:53:00.792Z,11.05
2023-05-13T05:55:27.091Z,11.18
2023-05-13T05:57:53.310Z,11.04
2023-05-13T06:00:19.666Z,11.22
2023-05-13T06:02:46.026Z,11.23
2023-05-13T06:05:12.362Z,11.30
2023-05-13T06:07:38.612Z,11.44
2023-05-13T06:10:06.414Z,11.65
2023-05-13T06:12:34.404Z,11.79
2023-05-13T06:15:00.650Z,12.01
2023-05-13T06:17:26.901Z,11.54
2023-05-13T06:19:53.123Z,11.48
2023-05-13T06:22:19.375Z,11.28
2023-05-13T06:24:45.626Z,11.26
2023-05-13T06:27:11.913Z,11.81
2023-05-13T06:29:38.126Z,12.06
2023-05-13T06:32:04.368Z,11.78
2023-05-13T06:34:30.624Z,12.14
2023-05-13T06:36:56.866Z,12.03
2023-05-13T06:39:23.098Z,12.34
2023-05-13T06:41:49.338Z,12.24
2023-05-13T06:44:15.583Z,12.14
2023-05-13T06:46:41.899Z,12.06
2023-05-13T06:49:08.176Z,11.91
2023-05-13T06:51:34.429Z,11.70
2023-05-13T06:54:00.722Z,12.16
2023-05-13T06:56:27.012Z,12.03
2023-05-13T06:58:53.243Z,11.94
2023-05-13T07:01:19.528Z,11.91
2023-05-13T07:03:45.870Z,11.62
2023-05-13T07:06:12.111Z,11.68
2023-05-13T07:08:38.337Z,11.89
2023-05-13T07:11:04.664Z,12.31
2023-05-13T07:13:30.898Z,12.17
2023-05-13T07:15:57.133Z,12.22
2023-05-13T07:18:23.435Z,12.05
2023-05-13T07:20:49.724Z,12.45
2023-05-13T07:23:16.205Z,11.95
2023-05-13T07:25:42.469Z,11.79
2023-05-13T07:28:08.688Z,11.50
2023-05-13T07:30:35.010Z,12.31
2023-05-13T07:33:01.395Z,12.74
2023-05-13T07:35:27.666Z,13.46
2023-05-13T07:37:53.912Z,13.75
2023-05-13T07:40:20.397Z,13.48
2023-05-13T07:42:46.790Z,12.92
2023-05-13T07:45:13.017Z,12.81
2023-05-13T07:47:39.277Z,12.74
2023-05-13T07:50:05.638Z,12.57
2023-05-13T07:52:31.911Z,12.02
2023-05-13T07:54:58.473Z,12.27
2023-05-13T07:57:24.836Z,12.68
2023-05-13T07:59:51.067Z,13.27
2023-05-13T08:02:17.382Z,13.43
2023-05-13T08:04:43.687Z,13.13
2023-05-13T08:07:09.952Z,13.34
2023-05-13T08:09:36.214Z,12.88
2023-05-13T08:12:02.463Z,12.57
2023-05-13T08:14:28.671Z,12.55
2023-05-13T08:16:55.077Z,12.83
2023-05-13T08:19:21.527Z,12.23
2023-05-13T08:21:47.831Z,12.18
2023-05-13T08:24:15.219Z,12.51
2023-05-13T08:26:41.472Z,12.98
2023-05-13T08:29:07.730Z,13.51
2023-05-13T08:31:33.990Z,13.91
2023-05-13T08:34:00.280Z,13.58
2023-05-13T08:36:26.544Z,14.16
2023-05-13T08:38:52.766Z,14.39
2023-05-13T08:41:21.192Z,14.29
2023-05-13T08:43:48.206Z,14.32
2023-05-13T08:46:14.576Z,14.31
2023-05-13T08:48:40.887Z,14.41
2023-05-13T08:51:07.138Z,13.92
2023-05-13T08:53:33.399Z,13.94
2023-05-13T08:55:59.631Z,13.48
2023-05-13T08:58:25.951Z,13.37
2023-05-13T09:00:52.208Z,13.48
2023-05-13T09:03:18.465Z,13.55
2023-05-13T09:05:44.718Z,13.96
2023-05-13T09:08:10.962Z,14.30
2023-05-13T09:10:37.227Z,13.51
2023-05-13T09:13:03.458Z,14.11
2023-05-13T09:15:29.685Z,13.80
2023-05-13T09:17:56.014Z,13.65
2023-05-13T09:20:22.333Z,13.78
2023-05-13T09:22:48.595Z,13.37
2023-05-13T09:25:14.815Z,13.51
2023-05-13T09:27:41.050Z,13.23
2023-05-13T09:30:07.324Z,13.29
2023-05-13T09:32:33.552Z,13.84
2023-05-13T09:34:59.811Z,14.08
2023-05-13T09:37:26.072Z,13.96
2023-05-13T09:39:52.366Z,14.41
2023-05-13T09:42:18.755Z,14.86
2023-05-13T09:44:45.011Z,15.09
2023-05-13T09:47:11.308Z,15.09
2023-05-13T09:49:37.626Z,14.99
2023-05-13T09:52:03.956Z,14.94
2023-05-13T09:54:31.451Z,14.42
2023-05-13T09:56:59.300Z,14.41
2023-05-13T09:59:25.667Z,14.37
2023-05-13T10:01:52.233Z,14.20
2023-05-13T10:04:18.698Z,14.72
2023-05-13T10:06:45.059Z,15.16
2023-05-13T10:09:11.325Z,15.52
2023-05-13T10:11:37.646Z,15.62
2023-05-13T10:14:03.878Z,15.62
2023-05-13T10:16:30.151Z,15.94
2023-05-13T10:18:56.441Z,16.03
2023-05-13T10:21:22.774Z,16.20
2023-05-13T10:23:48.999Z,16.36
2023-05-13T10:26:15.212Z,16.07
2023-05-13T10:28:41.468Z,15.13
2023-05-13T10:31:07.760Z,14.91
2023-05-13T10:33:33.989Z,15.19
2023-05-13T10:36:00.231Z,14.74
2023-05-13T10:38:26.455Z,15.29
2023-05-13T10:40:52.933Z,15.69
2023-05-13T10:43:19.229Z,15.55
2023-05-13T10:45:45.506Z,14.50
2023-05-13T10:48:11.873Z,14.51
2023-05-13T10:50:38.234Z,14.90
2023-05-13T10:53:04.480Z,15.68
2023-05-13T10:55:30.726Z,15.82
2023-05-13T10:57:56.982Z,16.40
2023-05-13T11:00:23.475Z,15.79
2023-05-13T11:02:49.964Z,16.35
2023-05-13T11:05:16.208Z,16.51
2023-05-13T11:07:42.439Z,16.67
2023-05-13T11:10:08.679Z,16.91
2023-05-13T11:12:34.917Z,17.22
2023-05-13T11:15:01.169Z,17.20
2023-05-13T11:17:27.469Z,16.25
2023-05-13T11:19:53.687Z,17.16
2023-05-13T11:22:19.919Z,17.23
2023-05-13T11:24:46.168Z,17.21
2023-05-13T11:27:12.387Z,16.97
2023-05-13T11:29:38.620Z,17.22
2023-05-13T11:32:04.887Z,17.47
2023-05-13T11:34:31.128Z,17.66
2023-05-13T11:36:57.362Z,18.08
2023-05-13T11:39:23.634Z,17.91
2023-05-13T11:41:49.883Z,17.39
2023-05-13T11:44:16.123Z,17.05
2023-05-13T11:46:42.382Z,15.90
2023-05-13T11:49:08.616Z,16.36
2023-05-13T11:51:34.849Z,16.42
2023-05-13T11:54:01.199Z,16.58
2023-05-13T11:56:27.444Z,16.55
2023-05-13T11:58:53.699Z,16.98
2023-05-13T12:01:19.930Z,17.11
2023-05-13T12:03:46.242Z,17.73
2023-05-13T12:06:12.470Z,16.65
2023-05-13T12:08:38.735Z,16.82
2023-05-13T12:11:05.013Z,16.45
2023-05-13T12:13:31.248Z,17.03
2023-05-13T12:15:57.649Z,17.34
2023-05-13T12:18:23.970Z,17.86
2023-05-13T12:20:50.219Z,18.12
2023-05-13T12:23:16.462Z,17.43
2023-05-13T12:25:42.733Z,17.81
2023-05-13T12:28:08.988Z,17.90
2023-05-13T12:30:35.272Z,17.69
2023-05-13T12:33:01.543Z,17.57
2023-05-13T12:35:27.777Z,17.75
2023-05-13T12:37:54.018Z,17.46
2023-05-13T12:40:20.303Z,17.08
2023-05-13T12:42:46.542Z,16.56
2023-05-13T12:45:12.798Z,17.15
2023-05-13T12:47:39.087Z,16.70
2023-05-13T12:50:05.348Z,17.13
2023-05-13T12:52:31.588Z,17.45
2023-05-13T12:54:57.828Z,16.50
2023-05-13T12:57:24.045Z,16.22
2023-05-13T12:59:50.290Z,17.09
2023-05-13T13:02:16.598Z,16.93
2023-05-13T13:04:42.824Z,15.41
2023-05-13T13:07:09.197Z,16.42
2023-05-13T13:09:35.446Z,16.11
2023-05-13T13:12:01.661Z,15.96
2023-05-13T13:14:27.884Z,17.00
2023-05-13T13:16:54.219Z,16.60
2023-05-13T13:19:20.543Z,17.12
2023-05-13T13:21:46.932Z,17.33
2023-05-13T13:24:13.157Z,17.31
2023-05-13T13:26:39.387Z,17.69
2023-05-13T13:29:05.648Z,17.82
2023-05-13T13:31:31.928Z,17.28
2023-05-13T13:33:58.168Z,17.21
2023-05-13T13:36:24.425Z,17.30
2023-05-13T13:38:50.661Z,17.57
2023-05-13T13:41:16.904Z,17.91
2023-05-13T13:43:43.181Z,17.30
2023-05-13T13:46:09.532Z,17.37
2023-05-13T13:48:35.826Z,17.01
2023-05-13T13:51:02.064Z,17.20
2023-05-13T13:53:28.302Z,17.46
2023-05-13T13:55:54.520Z,17.81
2023-05-13T13:58:20.801Z,17.15
2023-05-13T14:00:47.058Z,16.06
2023-05-13T14:03:13.549Z,15.78
2023-05-13T14:05:39.863Z,15.25
2023-05-13T14:08:06.284Z,15.28
2023-05-13T14:10:32.515Z,15.28
2023-05-13T14:12:58.750Z,15.63
2023-05-13T14:15:25.020Z,15.43
2023-05-13T14:17:51.282Z,15.24
2023-05-13T14:20:17.594Z,15.21
2023-05-13T14:22:44.720Z,15.68
2023-05-13T14:25:10.957Z,15.32
2023-05-13T14:27:37.213Z,15.31
2023-05-13T14:30:03.557Z,15.08
2023-05-13T14:32:29.804Z,15.27
2023-05-13T14:34:56.055Z,15.29
2023-05-13T14:37:22.428Z,15.14
2023-05-13T14:39:50.133Z,15.09
2023-05-13T14:42:16.622Z,15.43
2023-05-13T14:44:42.917Z,15.86
2023-05-13T14:47:11.017Z,15.92
2023-05-13T14:49:37.274Z,16.13
2023-05-13T14:52:03.508Z,16.10
2023-05-13T14:54:29.750Z,16.48
2023-05-13T14:56:55.979Z,16.23
2023-05-13T14:59:22.223Z,16.09
2023-05-13T15:01:48.560Z,16.57
2023-05-13T15:04:14.833Z,17.13
2023-05-13T15:06:41.071Z,17.11
2023-05-13T15:09:07.311Z,16.69
2023-05-13T15:11:33.600Z,16.06
2023-05-13T15:13:59.886Z,16.15
2023-05-13T15:16:26.157Z,16.10
2023-05-13T15:18:52.466Z,16.06
2023-05-13T15:21:18.721Z,16.76
2023-05-13T15:23:44.969Z,17.06
2023-05-13T15:26:11.220Z,16.89
2023-05-13T15:28:37.473Z,16.69
2023-05-13T15:31:03.729Z,16.90
2023-05-13T15:33:30.026Z,16.77
2023-05-13T15:35:56.252Z,16.30
2023-05-13T15:38:22.488Z,15.69
2023-05-13T15:40:48.721Z,15.84
2023-05-13T15:43:14.991Z,15.84
2023-05-13T15:45:41.215Z,15.26
2023-05-13T15:48:07.516Z,14.96
2023-05-13T15:50:33.811Z,15.72
2023-05-13T15:53:00.073Z,15.02
2023-05-13T15:55:26.302Z,15.36
2023-05-13T15:57:52.535Z,15.63
2023-05-13T16:00:18.767Z,15.83
2023-05-13T16:02:45.016Z,16.19
2023-05-13T16:05:11.256Z,16.39
2023-05-13T16:07:37.499Z,15.81
2023-05-13T16:10:03.732Z,14.93
2023-05-13T16:12:29.965Z,15.54
2023-05-13T16:14:56.224Z,14.93
2023-05-13T16:17:24.193Z,14.65
2023-05-13T16:19:50.452Z,15.08
2023-05-13T16:22:16.706Z,14.52
2023-05-13T16:24:43.043Z,14.59
2023-05-13T16:27:09.296Z,14.73
2023-05-13T16:29:35.531Z,15.31
2023-05-13T16:32:01.894Z,15.77
2023-05-13T16:34:28.193Z,15.76
2023-05-13T16:36:55.074Z,15.29
2023-05-13T16:39:22.116Z,15.38
2023-05-13T16:41:48.379Z,15.58
2023-05-13T16:44:14.606Z,15.78
2023-05-13T16:46:40.853Z,15.15
2023-05-13T16:49:07.100Z,14.38
2023-05-13T16:51:33.367Z,14.39
2023-05-13T16:53:59.610Z,14.71
2023-05-13T16:56:25.854Z,14.76
2023-05-13T16:58:52.079Z,14.51
2023-05-13T17:01:18.390Z,14.76
2023-05-13T17:03:44.666Z,15.10
2023-05-13T17:06:10.923Z,15.01
2023-05-13T17:08:37.164Z,15.10
2023-05-13T17:11:03.421Z,15.47
2023-05-13T17:13:29.668Z,14.90
2023-05-13T17:15:55.914Z,14.45
2023-05-13T17:18:22.165Z,14.45
2023-05-13T17:20:48.395Z,14.57
2023-05-13T17:23:14.625Z,14.76
2023-05-13T17:25:40.885Z,15.06
2023-05-13T17:28:07.129Z,14.83
2023-05-13T17:30:33.382Z,14.57
2023-05-13T17:32:59.706Z,14.49
2023-05-13T17:35:25.971Z,14.13
2023-05-13T17:37:52.217Z,14.43
2023-05-13T17:40:18.456Z,14.71
2023-05-13T17:42:44.732Z,14.68
2023-05-13T17:45:10.981Z,13.78
2023-05-13T17:47:37.335Z,14.52
2023-05-13T17:50:03.623Z,14.32
2023-05-13T17:52:29.850Z,13.81
2023-05-13T17:54:56.077Z,13.67
2023-05-13T17:57:22.310Z,14.27
2023-05-13T17:59:48.554Z,13.99
2023-05-13T18:02:14.907Z,14.41
2023-05-13T18:04:41.216Z,14.42
2023-05-13T18:07:07.488Z,13.97
2023-05-13T18:09:33.731Z,14.43
2023-05-13T18:11:59.988Z,14.48
2023-05-13T18:14:26.212Z,14.56
2023-05-13T18:16:52.502Z,14.29
2023-05-13T18:19:18.790Z,14.18
2023-05-13T18:21:45.068Z,14.28
2023-05-13T18:24:11.305Z,14.31
2023-05-13T18:26:37.551Z,14.32
2023-05-13T18:29:03.792Z,14.42
2023-05-13T18:31:30.068Z,14.46
2023-05-13T18:33:56.327Z,14.46
2023-05-13T18:36:22.587Z,14.19
2023-05-13T18:38:48.855Z,14.02
2023-05-13T18:41:15.143Z,13.71
2023-05-13T18:43:41.412Z,12.92
2023-05-13T18:46:07.739Z,13.37
2023-05-13T18:48:34.028Z,13.67
2023-05-13T18:51:00.369Z,13.72
2023-05-13T18:53:26.663Z,13.26
2023-05-13T18:55:52.961Z,13.79
2023-05-13T18:58:19.226Z,13.79
2023-05-13T19:00:45.565Z,13.97
2023-05-13T19:03:12.025Z,14.13
2023-05-13T19:05:38.438Z,14.02
2023-05-13T19:08:04.712Z,13.73
2023-05-13T19:10:33.215Z,13.94
2023-05-13T19:13:01.364Z,13.21
2023-05-13T19:15:27.620Z,12.92
2023-05-13T19:17:53.952Z,12.79
2023-05-13T19:20:21.194Z,13.00
2023-05-13T19:22:47.633Z,12.95
2023-05-13T19:25:13.941Z,12.73
2023-05-13T19:27:40.303Z,12.20
2023-05-13T19:30:06.956Z,12.00
2023-05-13T19:32:33.363Z,12.59
2023-05-13T19:34:59.762Z,13.06
2023-05-13T19:37:26.041Z,13.09
2023-05-13T19:39:52.318Z,13.39
2023-05-13T19:42:18.616Z,13.54
2023-05-13T19:44:45.014Z,13.58
2023-05-13T19:47:11.364Z,13.71
2023-05-13T19:49:37.645Z,13.03
2023-05-13T19:52:03.923Z,13.17
2023-05-13T19:54:30.203Z,13.20
2023-05-13T19:56:56.478Z,13.40
2023-05-13T19:59:22.847Z,13.00
2023-05-13T20:01:49.214Z,12.88
2023-05-13T20:04:15.561Z,12.91
2023-05-13T20:06:41.925Z,12.97
2023-05-13T20:09:08.206Z,13.38
2023-05-13T20:11:34.504Z,13.33
2023-05-13T20:14:03.705Z,13.50
2023-05-13T20:16:30.014Z,13.37
2023-05-13T20:18:56.313Z,12.65
2023-05-13T20:21:22.658Z,13.02
2023-05-13T20:23:48.992Z,13.37
2023-05-13T20:26:15.343Z,12.72
2023-05-13T20:28:41.607Z,11.95
2023-05-13T20:31:07.869Z,12.72
2023-05-13T20:33:34.090Z,12.45
2023-05-13T20:36:00.337Z,12.82
2023-05-13T20:38:26.663Z,12.66
2023-05-13T20:40:52.958Z,12.19
2023-05-13T20:43:19.223Z,11.88
2023-05-13T20:45:45.491Z,11.77
2023-05-13T20:48:11.767Z,11.87
2023-05-13T20:50:38.019Z,12.07
2023-05-13T20:53:04.277Z,12.42
2023-05-13T20:55:30.528Z,12.63
2023-05-13T20:57:56.770Z,12.74
2023-05-13T21:00:23.251Z,12.94
2023-05-13T21:02:49.749Z,13.02
2023-05-13T21:05:16.004Z,12.40
2023-05-13T21:07:42.262Z,12.67
2023-05-13T21:10:08.533Z,12.78
2023-05-13T21:12:34.798Z,12.81
2023-05-13T21:15:01.063Z,12.52
2023-05-13T21:17:27.386Z,11.97
2023-05-13T21:19:53.647Z,12.19
2023-05-13T21:22:19.879Z,12.23
2023-05-13T21:24:46.123Z,12.38
2023-05-13T21:27:12.381Z,12.66
2023-05-13T21:29:38.628Z,12.58
2023-05-13T21:32:04.859Z,12.35
2023-05-13T21:34:31.117Z,12.68
2023-05-13T21:36:57.473Z,12.66
2023-05-13T21:39:23.723Z,12.81
2023-05-13T21:41:49.942Z,12.88
2023-05-13T21:44:16.206Z,12.85
2023-05-13T21:46:42.473Z,12.42
2023-05-13T21:49:08.864Z,12.48
2023-05-13T21:51:35.255Z,12.57
2023-05-13T21:54:01.488Z,12.67
2023-05-13T21:56:27.703Z,12.63
2023-05-13T21:58:53.950Z,12.66
2023-05-13T22:01:20.355Z,11.88
2023-05-13T22:03:46.667Z,12.10
2023-05-13T22:06:12.969Z,12.20
2023-05-13T22:08:40.857Z,11.80
2023-05-13T22:11:07.140Z,11.37
2023-05-13T22:13:33.442Z,11.73
2023-05-13T22:15:59.714Z,12.19
2023-05-13T22:18:26.160Z,12.20
2023-05-13T22:20:52.494Z,12.07
2023-05-13T22:23:18.784Z,11.94
2023-05-13T22:25:45.047Z,11.73
2023-05-13T22:28:11.278Z,11.57
2023-05-13T22:30:37.496Z,12.01
2023-05-13T22:33:03.780Z,11.83
2023-05-13T22:35:30.040Z,11.83
2023-05-13T22:37:56.270Z,11.26
2023-05-13T22:40:22.761Z,11.29
2023-05-13T22:42:49.202Z,11.80
2023-05-13T22:45:15.468Z,12.15
2023-05-13T22:47:41.730Z,12.35
2023-05-13T22:50:08.023Z,12.01
2023-05-13T22:52:34.275Z,12.40
2023-05-13T22:55:00.526Z,12.19
2023-05-13T22:57:26.777Z,11.95
2023-05-13T22:59:53.012Z,12.12
2023-05-13T23:02:19.363Z,12.43
2023-05-13T23:04:45.606Z,12.56
2023-05-13T23:07:11.837Z,12.56
2023-05-13T23:09:38.094Z,12.12
2023-05-13T23:12:04.323Z,12.00
2023-05-13T23:14:30.542Z,12.32
2023-05-13T23:16:56.761Z,12.48
2023-05-13T23:19:23.022Z,12.32
2023-05-13T23:21:49.356Z,12.41
2023-05-13T23:24:15.608Z,12.35
2023-05-13T23:26:41.845Z,12.59
2023-05-13T23:29:08.114Z,12.60
2023-05-13T23:31:34.518Z,12.56
2023-05-13T23:34:00.855Z,12.55
2023-05-13T23:36:27.192Z,12.63
2023-05-13T23:38:53.424Z,12.68
2023-05-13T23:41:19.665Z,12.66
2023-05-13T23:43:45.883Z,12.51
2023-05-13T23:46:12.217Z,12.28
2023-05-13T23:48:38.497Z,12.02
2023-05-13T23:51:04.743Z,11.40
2023-05-13T23:53:30.978Z,11.45
2023-05-13T23:55:57.242Z,11.56
2023-05-13T23:58:23.526Z,11.82
